Time;durP1;ratioP1;P1;durP2;ratioP2;P2;SDS_P1;SDS_P2;PMS_P1;PMS_P2;Temp;Humidity;BMP_temperature;BMP_pressure;BME280_temperature;BME280_humidity;BME280_pressure;Samples;Min_cycle;Max_cycle;Signal;HPM_P1;HPM_P2
2024/03/28 00:02:15;;;;;;;4.07;2.60;;;;;;;-144.05;70.70;56959.28;5078342;28;20366;-80
2024/03/28 00:04:42;;;;;;;2.83;2.17;;;7.40;99.90;;;-144.05;71.42;56959.28;5080954;28;20070;-81
2024/03/28 00:07:08;;;;;;;4.68;2.63;;;;;;;-144.05;70.71;56929.53;5077447;28;20032;-81
2024/03/28 00:09:34;;;;;;;2.88;2.40;;;7.10;99.90;;;-144.05;71.20;56935.91;5096303;28;20024;-82
2024/03/28 00:12:00;;;;;;;4.10;2.40;;;7.10;99.90;;;-144.05;71.87;56974.16;5067226;28;20031;-81
2024/03/28 00:14:27;;;;;;;3.67;2.50;;;6.90;99.90;;;-144.05;71.89;56940.16;5086008;28;20512;-81
2024/03/28 00:16:53;;;;;;;4.65;2.60;;;7.20;99.90;;;-144.05;71.57;56925.28;5067742;28;20028;-81
2024/03/28 00:19:19;;;;;;;4.72;2.45;;;7.10;99.90;;;-144.05;71.60;56942.28;5088004;28;20175;-80
2024/03/28 00:21:46;;;;;;;3.90;2.35;;;8.00;99.90;;;-144.05;71.56;56938.03;5086716;28;20024;-81
2024/03/28 00:24:12;;;;;;;3.00;2.60;;;7.40;99.90;;;-144.05;71.37;56955.03;5064302;28;20051;-81
2024/03/28 00:26:38;;;;;;;3.88;2.90;;;7.70;99.90;;;-144.05;71.60;56976.28;5070361;28;20118;-79
2024/03/28 00:29:04;;;;;;;4.80;2.42;;;;;;;-144.05;71.85;56938.03;5085623;28;20028;-81
2024/03/28 00:31:31;;;;;;;3.90;2.45;;;;;;;-144.05;71.87;56957.16;5062239;28;20130;-77
2024/03/28 00:33:57;;;;;;;3.17;2.22;;;;;;;-144.05;72.23;56927.41;5074482;28;20025;-79
2024/03/28 00:36:23;;;;;;;4.10;2.47;;;7.40;99.90;;;-144.05;71.92;56950.78;5076495;28;20073;-81
2024/03/28 00:38:49;;;;;;;3.42;2.47;;;7.50;99.90;;;-144.05;71.96;56946.53;5085828;28;20563;-79
2024/03/28 00:41:16;;;;;;;3.70;2.80;;;;;;;-144.05;72.19;56952.91;5083657;28;20543;-79
2024/03/28 00:43:43;;;;;;;2.55;2.00;;;7.00;99.90;;;-144.05;71.72;56969.91;5064683;28;20111;-80
2024/03/28 00:46:09;;;;;;;3.72;2.70;;;7.10;99.90;;;-144.05;71.31;56948.66;5066943;28;20025;-81
2024/03/28 00:48:35;;;;;;;3.75;2.40;;;6.70;99.90;;;-144.05;72.00;56974.16;5086710;28;20531;-77
2024/03/28 00:51:01;;;;;;;3.13;2.55;;;8.70;99.90;;;-144.05;72.09;56972.03;5083972;28;20478;-79
2024/03/28 00:53:28;;;;;;;3.75;2.83;;;6.60;99.90;;;-144.05;71.75;56952.91;5065328;28;20024;-78
2024/03/28 00:55:55;;;;;;;3.67;2.75;;;;;;;-144.05;72.06;56952.91;5058899;28;20031;-80
2024/03/28 00:58:21;;;;;;;4.57;2.60;;;7.30;99.90;;;-144.05;72.14;56944.41;5078908;28;20032;-79
2024/03/28 01:00:48;;;;;;;3.30;2.60;;;7.30;99.90;;;-144.05;72.16;56959.28;5082543;28;20059;-79
2024/03/28 01:03:15;;;;;;;3.25;2.67;;;7.00;99.90;;;-144.05;72.26;56974.16;5084514;28;20025;-81
2024/03/28 01:05:42;;;;;;;2.55;2.20;;;7.00;99.90;;;-144.05;71.31;56963.53;5085642;28;20052;-80
2024/03/28 01:08:09;;;;;;;4.18;2.40;;;7.10;99.90;;;-144.05;71.94;56952.91;5079498;28;20089;-80
2024/03/28 01:10:37;;;;;;;6.55;3.08;;;7.90;99.90;;;-144.05;72.31;56940.16;5067993;28;20039;-80
2024/03/28 01:13:04;;;;;;;3.47;2.50;;;6.90;99.90;;;-144.05;72.75;56961.41;5078089;28;20021;-80
2024/03/28 01:15:34;;;;;;;5.43;2.58;;;7.40;99.90;;;-144.05;72.43;56950.78;5063959;28;20430;-80
2024/03/28 01:18:00;;;;;;;4.07;2.45;;;7.10;99.90;;;-144.05;72.08;56935.91;5062529;28;20020;-81
2024/03/28 01:20:25;;;;;;;4.68;2.40;;;7.20;99.90;;;-144.05;72.01;56969.91;5063724;28;20035;-79
2024/03/28 01:22:52;;;;;;;3.53;2.33;;;;;;;-144.05;71.54;56948.66;5083962;28;20043;-78
2024/03/28 01:25:18;;;;;;;3.38;2.60;;;;;;;-144.05;72.17;56946.53;5088078;28;20036;-81
2024/03/28 01:27:46;;;;;;;8.30;2.58;;;7.90;99.90;;;-144.05;71.84;56967.78;5089269;28;20078;-78
2024/03/28 01:30:13;;;;;;;4.72;2.78;;;6.90;99.90;;;-144.05;72.48;56940.16;5068455;28;20045;-80
2024/03/28 01:32:38;;;;;;;3.92;2.38;;;7.30;99.90;;;-144.05;71.55;56969.91;5088159;28;20027;-81
2024/03/28 01:35:05;;;;;;;3.35;2.63;;;7.20;99.90;;;-144.05;71.72;56952.91;5086091;28;20029;-81
2024/03/28 01:37:31;;;;;;;4.05;2.30;;;;;;;-144.05;71.64;56965.66;5063121;28;20028;-80
2024/03/28 01:39:59;;;;;;;4.45;2.60;;;;;;;-144.05;71.64;56935.91;5085289;28;20024;-81
2024/03/28 01:42:25;;;;;;;4.97;2.22;;;6.80;99.90;;;-144.05;71.35;56976.28;5090363;28;20020;-79
2024/03/28 01:44:51;;;;;;;2.70;2.15;;;8.40;99.90;;;-144.05;71.45;56969.91;5071679;28;20035;-81
2024/03/28 01:47:18;;;;;;;3.03;2.30;;;;;;;-144.05;71.47;56944.41;5087758;28;20028;-81
2024/03/28 01:49:44;;;;;;;3.13;2.30;;;7.10;99.90;;;-144.05;71.37;56976.28;5064711;28;20029;-81
2024/03/28 01:52:12;;;;;;;3.20;2.25;;;7.10;99.90;;;-144.05;71.44;56963.53;5086301;28;20081;-79
2024/03/28 01:54:41;;;;;;;5.25;2.90;;;8.00;99.90;;;-144.05;71.35;56984.78;5070722;28;20020;-81
2024/03/28 01:57:11;;;;;;;3.33;2.40;;;8.00;99.90;;;-144.05;71.72;56957.16;5066949;28;20029;-80
2024/03/28 01:59:39;;;;;;;3.08;2.50;;;7.90;99.90;;;-144.05;70.93;56961.41;5087782;28;20088;-81
2024/03/28 02:02:09;;;;;;;4.50;2.80;;;7.20;99.90;;;-144.05;71.32;56938.03;5062900;28;20073;-79
2024/03/28 02:04:35;;;;;;;3.42;2.15;;;7.20;99.90;;;-144.05;70.83;57001.75;5070137;28;20396;-80
2024/03/28 02:07:02;;;;;;;2.95;2.22;;;;;;;-144.05;71.47;56944.41;5066082;28;20036;-80
2024/03/28 02:10:28;;;;;;;2.70;2.30;;;6.90;99.90;;;-144.05;70.58;56952.91;5087185;28;20024;-80
2024/03/28 02:12:55;;;;;;;3.40;2.47;;;7.20;99.90;;;-144.05;69.77;56948.66;5064898;28;20054;-80
2024/03/28 02:15:20;;;;;;;3.42;2.15;;;7.10;99.90;;;-144.05;70.39;56965.66;5082215;28;20032;-79
2024/03/28 02:17:50;;;;;;;8.32;2.78;;;6.70;99.90;;;-144.05;70.10;56959.28;5068109;28;20112;-79
2024/03/28 02:20:17;;;;;;;6.70;2.50;;;6.90;99.90;;;-144.05;70.04;56950.78;5067185;28;20021;-80
2024/03/28 02:22:43;;;;;;;6.00;2.30;;;7.10;99.90;;;-144.05;70.13;56955.03;5082114;28;20024;-80
2024/03/28 02:25:10;;;;;;;3.38;2.08;;;6.80;99.90;;;-144.05;69.68;56946.53;5062597;28;20053;-81
2024/03/28 02:27:37;;;;;;;3.67;2.63;;;7.00;99.90;;;-144.05;70.46;56980.53;5087682;28;20103;-78
2024/03/28 02:30:08;;;;;;;5.28;2.63;;;7.00;99.90;;;-144.05;70.49;56976.28;5083291;28;20056;-79
2024/03/28 02:32:35;;;;;;;5.22;2.10;;;7.50;99.90;;;-144.05;70.21;56978.41;5075885;28;20020;-80
2024/03/28 02:35:05;;;;;;;4.22;2.10;;;8.20;99.90;;;-144.05;70.21;56967.78;5061171;28;20524;-81
2024/03/28 02:37:32;;;;;;;3.67;2.22;;;7.60;99.90;;;-144.05;70.54;56957.16;5061417;28;20024;-81
2024/03/28 02:40:00;;;;;;;3.67;2.00;;;;;;;-144.05;69.80;56976.28;5084896;28;20020;-82
2024/03/28 02:42:26;;;;;;;3.97;2.42;;;8.20;99.90;;;-144.05;70.08;56948.66;5069886;28;20039;-81
2024/03/28 02:44:52;;;;;;;2.63;2.00;;;7.10;99.90;;;-144.05;70.61;56965.66;5089763;28;20025;-82
2024/03/28 02:47:19;;;;;;;4.72;2.63;;;7.40;99.90;;;-144.05;70.58;56984.78;5068595;28;20050;-81
2024/03/28 02:49:45;;;;;;;3.97;2.55;;;;;;;-144.05;70.49;56942.28;5067484;28;20024;-81
2024/03/28 02:52:11;;;;;;;5.25;2.40;;;7.00;99.90;;;-144.05;70.66;56965.66;5070600;28;20028;-81
2024/03/28 02:54:37;;;;;;;4.90;2.80;;;6.60;99.90;;;-144.05;70.55;56952.91;5070762;28;20020;-80
2024/03/28 02:57:05;;;;;;;3.20;2.20;;;7.60;99.90;;;-144.05;70.55;56961.41;5067692;28;20115;-81
2024/03/28 02:59:31;;;;;;;4.78;2.60;;;7.60;99.90;;;-144.05;70.63;56967.78;5064489;28;20440;-81
2024/03/28 03:01:58;;;;;;;3.63;2.20;;;7.00;99.90;;;-144.05;70.62;56965.66;5066619;28;20031;-81
2024/03/28 03:04:24;;;;;;;4.72;2.45;;;;;;;-144.05;70.31;56972.03;5067961;28;20123;-79
2024/03/28 03:06:51;;;;;;;3.05;2.35;;;7.00;99.90;;;-144.05;69.98;56967.78;5085149;28;20485;-81
2024/03/28 03:09:17;;;;;;;3.30;2.30;;;;;;;-144.05;70.12;56952.91;5066224;28;20036;-82
2024/03/28 03:11:43;;;;;;;4.75;2.50;;;;;;;-144.05;69.98;56950.78;5085407;28;20031;-81
2024/03/28 03:14:09;;;;;;;6.80;2.58;;;6.70;99.90;;;-144.05;70.12;56980.53;5079503;28;20033;-80
2024/03/28 03:16:35;;;;;;;4.93;2.38;;;7.20;99.90;;;-144.05;70.43;56980.53;5069650;28;20066;-81
2024/03/28 03:19:02;;;;;;;2.65;2.22;;;6.40;99.90;;;-144.05;70.29;56972.03;5063585;28;20024;-80
2024/03/28 03:21:29;;;;;;;3.72;2.50;;;;;;;-144.05;70.53;56963.53;5067689;28;20043;-81
2024/03/28 03:24:00;;;;;;;5.60;3.38;;;;;;;-144.05;70.94;56976.28;5063090;28;20241;-79
2024/03/28 03:26:34;;;;;;;5.18;2.13;;;7.40;99.90;;;-144.05;70.51;56963.53;5082767;28;20046;-78
2024/03/28 03:34:36;;;;;;;3.70;2.70;;;8.30;99.90;;;-144.05;71.62;56984.78;5080436;28;20124;-81
2024/03/28 03:37:24;;;;;;;4.57;2.67;;;7.20;99.90;;;-144.05;71.42;56980.53;5080558;28;20125;-81
2024/03/28 03:40:01;;;;;;;3.17;2.33;;;6.90;99.90;;;-144.05;70.79;56957.16;5078753;28;20024;-81
2024/03/28 03:42:27;;;;;;;3.90;2.25;;;7.10;99.90;;;-144.05;70.19;56984.78;5086380;28;20024;-80
2024/03/28 03:44:52;;;;;;;4.10;2.58;;;6.80;99.90;;;-144.05;70.19;56963.53;5080973;28;20025;-79
2024/03/28 03:47:19;;;;;;;4.30;3.22;;;;;;;-144.05;70.09;56946.53;5074406;28;20029;-81
2024/03/28 03:49:44;;;;;;;3.78;2.65;;;6.40;99.90;;;-144.05;70.36;56965.66;5078423;28;20095;-81
2024/03/28 03:52:11;;;;;;;4.28;2.38;;;7.10;99.90;;;-144.05;70.36;56965.66;5065292;28;20479;-80
2024/03/28 03:54:39;;;;;;;5.20;2.97;;;7.40;99.90;;;-144.05;70.16;56989.00;5064799;28;20082;-81
2024/03/28 03:57:05;;;;;;;5.47;2.58;;;;;;;-144.05;70.37;56967.78;5064911;28;20024;-81
2024/03/28 03:59:37;;;;;;;4.30;2.65;;;7.40;99.90;;;-144.05;69.94;56942.28;5079723;28;20024;-80
2024/03/28 04:02:04;;;;;;;3.85;2.80;;;7.90;99.90;;;-144.05;69.73;56972.03;5057094;28;20025;-80
2024/03/28 04:04:31;;;;;;;4.15;3.17;;;;;;;-144.05;69.98;56976.28;5084100;28;20032;-81
2024/03/28 04:06:58;;;;;;;4.20;2.80;;;6.40;99.90;;;-144.05;69.39;56965.66;5059758;28;20024;-79
2024/03/28 04:09:24;;;;;;;4.32;3.15;;;8.30;99.90;;;-144.05;69.82;56959.28;5065166;28;20033;-81
2024/03/28 04:11:51;;;;;;;4.22;2.67;;;7.50;99.90;;;-144.05;69.67;56976.28;5064772;28;20016;-79
2024/03/28 04:14:18;;;;;;;4.10;3.10;;;6.30;99.90;;;-144.05;69.51;56963.53;5065628;28;20025;-82
2024/03/28 04:16:44;;;;;;;4.78;2.80;;;6.90;99.90;;;-144.05;69.72;56967.78;5084660;28;20032;-81
2024/03/28 04:19:11;;;;;;;3.63;2.63;;;6.80;99.90;;;-144.05;70.47;56959.28;5081878;28;20021;-80
2024/03/28 04:21:38;;;;;;;4.82;3.38;;;7.20;99.90;;;-144.05;70.03;56978.41;5062590;28;20449;-80
2024/03/28 04:24:05;;;;;;;3.88;3.10;;;8.20;99.90;;;-144.05;69.74;56961.41;5062090;28;20032;-80
2024/03/28 04:26:33;;;;;;;4.57;3.20;;;7.20;99.90;;;-144.05;69.88;56959.28;5074413;28;20020;-79
2024/03/28 04:29:00;;;;;;;8.25;3.75;;;7.30;99.90;;;-144.05;69.99;56963.53;5065297;28;20028;-80
2024/03/28 04:31:26;;;;;;;5.43;3.47;;;6.60;99.90;;;-144.05;69.81;56963.53;5090799;28;20029;-81
2024/03/28 04:33:53;;;;;;;5.38;3.85;;;;;;;-144.05;69.77;56982.66;5073067;28;20036;-83
2024/03/28 04:36:18;;;;;;;5.30;3.42;;;8.10;99.90;;;-144.05;69.86;56959.28;5071249;28;20056;-81
2024/03/28 04:38:45;;;;;;;4.82;3.65;;;7.40;99.90;;;-144.05;70.49;56982.66;5087958;28;20021;-80
2024/03/28 04:41:13;;;;;;;7.50;4.03;;;7.20;99.90;;;-144.05;70.26;56950.78;5063806;28;20029;-79
2024/03/28 04:43:40;;;;;;;5.03;3.50;;;8.00;99.90;;;-144.05;70.24;56967.78;5086845;28;20098;-81
2024/03/28 04:46:06;;;;;;;4.78;3.60;;;8.00;99.90;;;-144.05;69.92;56993.25;5073152;28;20021;-80
2024/03/28 04:48:32;;;;;;;6.18;3.95;;;6.90;99.90;;;-144.05;70.51;56972.03;5063298;28;20354;-80
2024/03/28 04:50:58;;;;;;;7.72;3.60;;;6.80;99.90;;;-144.05;71.01;56984.78;5057876;28;20031;-81
2024/03/28 04:53:24;;;;;;;7.82;3.70;;;6.70;99.90;;;-144.05;70.85;56972.03;5062159;28;20510;-80
2024/03/28 04:55:51;;;;;;;6.80;4.45;;;6.40;99.90;;;-144.05;70.96;56963.53;5078564;28;20101;-80
2024/03/28 04:58:16;;;;;;;6.03;4.28;;;7.20;99.90;;;-144.05;71.27;56976.28;5063462;28;20024;-80
2024/03/28 05:00:43;;;;;;;8.65;4.80;;;;;;;-144.05;71.32;56963.53;5070959;28;20039;-80
2024/03/28 05:03:09;;;;;;;5.65;3.92;;;6.60;99.90;;;-144.05;71.31;56969.91;5084530;28;20020;-80
2024/03/28 05:05:35;;;;;;;6.65;4.45;;;;;;;-144.05;71.93;56969.91;5068472;28;20101;-79
2024/03/28 05:08:01;;;;;;;6.80;4.70;;;7.20;99.90;;;-144.05;72.08;56961.41;5061947;28;20028;-81
2024/03/28 05:10:27;;;;;;;7.47;4.13;;;;;;;-144.05;72.28;56959.28;5070028;28;20107;-81
2024/03/28 05:12:53;;;;;;;8.18;4.50;;;6.60;99.90;;;-144.05;72.33;56980.53;5086740;28;20020;-79
2024/03/28 05:15:19;;;;;;;8.10;5.18;;;6.90;99.90;;;-144.05;71.99;56955.03;5079925;28;20054;-79
2024/03/28 05:17:45;;;;;;;9.77;4.97;;;;;;;-144.05;72.28;56961.41;5068886;28;20032;-79
2024/03/28 05:20:14;;;;;;;6.88;4.28;;;;;;;-144.05;71.96;56952.91;5065069;28;20049;-80
2024/03/28 05:22:40;;;;;;;7.55;4.60;;;7.90;99.90;;;-144.05;72.15;56976.28;5064241;28;20101;-79
2024/03/28 05:25:07;;;;;;;9.15;4.80;;;;;;;-144.05;72.16;56969.91;5076685;28;20486;-80
2024/03/28 05:27:35;;;;;;;6.85;4.82;;;;;;;-144.05;72.26;56976.28;5083359;28;20069;-80
2024/03/28 05:30:05;;;;;;;6.82;4.28;;;7.30;99.90;;;-144.05;72.00;56976.28;5076281;28;20047;-80
2024/03/28 05:32:31;;;;;;;8.20;5.07;;;7.00;99.90;;;-144.05;72.48;56980.53;5082648;28;20032;-79
2024/03/28 05:34:56;;;;;;;6.97;4.90;;;7.10;99.90;;;-144.05;72.51;56959.28;5069135;28;20024;-79
2024/03/28 05:37:23;;;;;;;9.68;5.40;;;6.90;99.90;;;-144.05;72.28;56967.78;5066265;28;20032;-80
2024/03/28 05:39:49;;;;;;;8.38;4.82;;;6.60;99.90;;;-144.05;71.80;56963.53;5064782;28;20119;-81
2024/03/28 05:42:15;;;;;;;7.40;4.95;;;7.90;99.90;;;-144.05;72.04;56944.41;5081981;28;20591;-81
2024/03/28 05:44:41;;;;;;;9.38;5.30;;;;;;;-144.05;71.56;56955.03;5066448;28;20073;-81
2024/03/28 05:47:07;;;;;;;5.63;4.25;;;6.90;99.90;;;-144.05;71.30;56957.16;5087187;28;20435;-79
2024/03/28 05:49:33;;;;;;;9.32;5.15;;;6.90;99.90;;;-144.05;71.52;56978.41;5087865;28;20028;-80
2024/03/28 05:51:59;;;;;;;8.15;4.72;;;7.00;99.90;;;-144.05;70.93;56980.53;5087466;28;20021;-78
2024/03/28 05:54:25;;;;;;;6.82;4.47;;;7.10;99.90;;;-144.05;70.71;56969.91;5077394;28;20028;-79
2024/03/28 05:56:51;;;;;;;7.63;4.85;;;7.10;99.90;;;-144.05;70.37;56984.78;5059915;28;20032;-79
2024/03/28 05:59:17;;;;;;;6.93;4.85;;;;;;;-144.05;69.99;56972.03;5090363;28;20032;-77
2024/03/28 06:01:43;;;;;;;8.43;4.88;;;7.30;99.90;;;-144.05;69.69;56948.66;5081007;28;20103;-78
2024/03/28 06:04:08;;;;;;;6.55;4.78;;;7.20;99.90;;;-144.05;69.01;56952.91;5076663;28;20104;-80
2024/03/28 06:06:34;;;;;;;6.22;4.00;;;6.80;99.90;;;-144.05;68.62;56948.66;5066207;28;20037;-79
2024/03/28 06:09:00;;;;;;;8.50;4.90;;;;;;;-144.05;68.66;56984.78;5059192;28;20033;-79
2024/03/28 06:11:26;;;;;;;7.95;4.70;;;7.20;99.90;;;-144.05;68.10;56950.78;5064931;28;20120;-78
2024/03/28 06:14:07;;;;;;;7.95;4.80;;;7.50;99.90;;;-144.05;67.52;56946.53;5082116;28;20032;-81
2024/03/28 06:16:33;;;;;;;6.45;4.03;;;7.10;99.90;;;-144.05;67.02;56959.28;5080741;28;20032;-80
2024/03/28 06:18:59;;;;;;;6.55;3.83;;;7.20;99.90;;;-144.05;66.64;56967.78;5082864;28;20024;-80
2024/03/28 06:21:25;;;;;;;4.53;3.67;;;6.80;99.90;;;-144.05;65.81;56950.78;5084924;28;20021;-80
2024/03/28 06:23:51;;;;;;;7.00;3.35;;;6.60;99.90;;;-144.05;64.65;56935.91;5081138;28;20095;-80
2024/03/28 06:26:17;;;;;;;5.10;3.28;;;;;;;-144.05;63.28;56940.16;5075776;28;20082;-78
2024/03/28 06:28:43;;;;;;;8.63;3.45;;;7.30;99.90;;;-144.05;62.23;56925.28;5086404;28;20066;-79
2024/03/28 06:31:09;;;;;;;4.30;2.80;;;7.60;99.90;;;-144.05;61.72;56957.16;5082653;28;20047;-79
2024/03/28 06:33:35;;;;;;;4.63;2.90;;;;;;;-144.05;60.23;56935.91;5063357;28;20025;-79
2024/03/28 06:36:04;;;;;;;3.83;2.67;;;7.80;99.90;;;-144.05;58.54;56940.16;5060303;28;20442;-82
2024/03/28 06:38:31;;;;;;;4.05;2.83;;;7.20;99.90;;;-144.05;58.00;56931.66;5064736;28;20051;-80
2024/03/28 06:41:02;;;;;;;6.32;2.92;;;7.60;99.90;;;-144.05;57.86;56938.03;5081677;28;20029;-79
2024/03/28 06:43:28;;;;;;;5.43;2.88;;;10.70;99.90;;;-144.05;57.21;56929.53;5084490;28;20063;-80
2024/03/28 06:45:53;;;;;;;5.30;3.28;;;7.90;99.90;;;-144.05;56.03;56963.53;5068111;28;20032;-80
2024/03/28 06:48:19;;;;;;;4.68;2.67;;;7.30;99.90;;;-144.05;56.33;56935.91;5084392;28;20021;-80
2024/03/28 06:50:45;;;;;;;7.72;2.78;;;7.60;99.90;;;-144.05;55.77;56946.53;5084076;28;20080;-78
2024/03/28 06:53:11;;;;;;;3.45;2.13;;;14.00;99.90;;;-144.05;55.09;56942.28;5073337;28;20068;-82
2024/03/28 06:55:37;;;;;;;4.82;2.42;;;;;;;-144.05;55.04;56927.41;5088844;28;20039;-78
2024/03/28 06:58:04;;;;;;;3.35;2.08;;;7.90;99.90;;;-144.05;55.84;56931.66;5084031;28;20048;-79
2024/03/28 07:00:30;;;;;;;2.53;1.77;;;7.50;99.90;;;-144.05;55.68;56944.41;5091240;28;20545;-79
2024/03/28 07:02:56;;;;;;;2.60;2.00;;;;;;;-144.05;54.63;56959.28;5066311;28;20134;-80
2024/03/28 07:05:23;;;;;;;2.92;1.83;;;7.90;99.90;;;-144.05;54.08;56938.03;5064846;28;20025;-79
2024/03/28 07:07:49;;;;;;;5.40;1.65;;;7.60;99.90;;;-144.05;54.78;56925.28;5074222;28;20020;-80
2024/03/28 07:10:15;;;;;;;3.75;1.58;;;;;;;-144.05;54.77;56923.19;5064532;28;20082;-79
2024/03/28 07:12:41;;;;;;;2.33;1.58;;;7.60;99.90;;;-144.05;54.23;56942.28;5082374;28;20072;-80
2024/03/28 07:15:09;;;;;;;1.90;1.35;;;7.20;99.90;;;-144.05;53.63;56933.78;5079305;28;20027;-81
2024/03/28 07:17:36;;;;;;;4.00;1.63;;;7.40;99.90;;;-144.05;53.86;56942.28;5071243;28;20202;-77
2024/03/28 07:20:03;;;;;;;2.20;1.40;;;8.20;99.90;;;-144.05;54.73;56935.91;5059971;28;20021;-80
2024/03/28 07:22:30;;;;;;;3.63;1.48;;;9.90;99.90;;;-144.05;54.70;56940.16;5080395;28;20032;-79
2024/03/28 07:24:57;;;;;;;1.50;1.20;;;14.00;99.90;;;-144.05;54.34;56952.91;5063361;28;20021;-79
2024/03/28 07:27:27;;;;;;;1.88;1.40;;;10.10;99.90;;;-144.05;52.84;56944.41;5079136;28;20028;-81
2024/03/28 07:29:53;;;;;;;3.40;1.10;;;7.50;99.90;;;-144.05;52.80;56929.53;5074559;28;20032;-79
2024/03/28 07:32:18;;;;;;;1.60;1.23;;;8.30;99.90;;;-144.05;51.31;56925.28;5077275;28;20500;-80
2024/03/28 07:34:45;;;;;;;4.10;1.45;;;;;;;-144.05;51.92;56948.66;5082004;28;20035;-80
2024/03/28 07:37:12;;;;;;;2.47;1.13;;;;;;;-144.05;50.65;56935.91;5074931;28;20021;-79
2024/03/28 07:39:38;;;;;;;1.10;0.90;;;;;;;-144.05;51.50;56959.28;5060487;28;20021;-81
2024/03/28 07:42:04;;;;;;;4.88;1.20;;;8.70;99.90;;;-144.05;51.38;56948.66;5080610;28;20035;-80
2024/03/28 07:44:29;;;;;;;2.63;1.10;;;7.50;99.90;;;-144.05;50.85;56935.91;5078990;28;20043;-78
2024/03/28 07:46:56;;;;;;;2.10;1.23;;;;;;;-144.05;50.96;56931.66;5079593;28;20473;-77
2024/03/28 07:49:21;;;;;;;1.27;1.08;;;7.60;99.90;;;-144.05;51.35;56927.41;5080364;28;20491;-77
2024/03/28 07:51:47;;;;;;;1.95;1.55;;;7.30;99.90;;;-144.05;51.94;56959.28;5080915;28;20023;-80
2024/03/28 07:54:13;;;;;;;2.53;1.10;;;14.30;99.90;;;-144.05;53.59;56927.41;5085718;28;20043;-77
2024/03/28 07:56:39;;;;;;;3.67;1.13;;;7.30;99.90;;;-144.05;53.40;56965.66;5079766;28;20032;-78
2024/03/28 07:59:07;;;;;;;1.35;1.05;;;;;;;-144.05;52.15;56938.03;5086175;28;20028;-80
2024/03/28 08:01:33;;;;;;;1.48;1.10;;;8.00;99.90;;;-144.05;50.55;56944.41;5080676;28;20123;-79
2024/03/28 08:03:59;;;;;;;1.35;0.85;;;8.60;99.90;;;-144.05;51.40;56944.41;5077556;28;20077;-82
2024/03/28 08:06:25;;;;;;;1.58;0.82;;;;;;;-144.05;51.34;56933.78;5053244;28;20127;-77
2024/03/28 08:08:51;;;;;;;2.75;1.00;;;;;;;-144.05;51.61;56946.53;5077764;28;20028;-77
2024/03/28 08:11:17;;;;;;;3.78;1.25;;;7.90;99.90;;;-144.05;52.26;56935.91;5067051;28;20182;-78
2024/03/28 08:13:44;;;;;;;2.60;1.10;;;;;;;-144.05;51.43;56908.31;5063410;28;20032;-80
2024/03/28 08:16:09;;;;;;;1.60;1.08;;;7.80;99.90;;;-144.05;53.01;56929.53;5058020;28;20028;-78
2024/03/28 08:18:35;;;;;;;1.92;0.90;;;6.80;99.90;;;-144.05;52.85;56972.03;5080566;28;20060;-79
2024/03/28 08:21:02;;;;;;;2.13;1.30;;;7.60;99.90;;;-144.05;53.28;56961.41;5084777;28;20028;-80
2024/03/28 08:23:28;;;;;;;1.65;1.10;;;;;;;-144.05;54.51;56948.66;5076422;28;20077;-78
2024/03/28 08:25:54;;;;;;;3.13;0.80;;;13.70;99.90;;;-144.05;53.57;56933.78;5061347;28;20470;-77
2024/03/28 08:28:20;;;;;;;2.95;1.30;;;;;;;-144.05;53.69;56948.66;5061929;28;20036;-78
2024/03/28 08:30:47;;;;;;;2.55;1.02;;;;;;;-144.05;53.45;56959.28;5078891;28;20031;-78
2024/03/28 08:33:13;;;;;;;1.85;1.02;;;13.90;99.90;;;-144.05;52.79;56929.53;5086775;28;20028;-78
2024/03/28 08:35:43;;;;;;;1.70;1.08;;;7.40;99.90;;;-144.05;54.25;56948.66;5083488;28;20039;-83
2024/03/28 08:38:10;;;;;;;1.58;1.17;;;13.80;99.90;;;-144.05;54.02;56929.53;5081571;28;20028;-79
2024/03/28 08:40:37;;;;;;;1.60;0.82;;;7.20;99.90;;;-144.05;55.11;56946.53;5066899;28;20385;-79
2024/03/28 08:43:04;;;;;;;2.13;0.93;;;7.50;99.90;;;-144.05;55.10;56931.66;5080964;28;20025;-77
2024/03/28 08:45:32;;;;;;;1.48;1.00;;;6.80;99.90;;;-144.05;55.61;56944.41;5083809;28;20051;-79
2024/03/28 08:47:59;;;;;;;1.60;1.17;;;7.10;99.90;;;-144.05;55.96;56955.03;5081566;28;20547;-80
2024/03/28 08:50:26;;;;;;;2.63;1.17;;;7.40;99.90;;;-144.05;56.95;56952.91;5081731;28;20037;-78
2024/03/28 08:52:54;;;;;;;1.45;0.90;;;7.20;99.90;;;-144.05;57.49;56940.16;5063450;28;20108;-80
2024/03/28 08:55:24;;;;;;;1.85;1.00;;;7.80;99.90;;;-144.05;59.24;56946.53;5080609;28;20025;-80
2024/03/28 08:57:51;;;;;;;1.35;1.25;;;7.10;99.90;;;-144.05;59.41;56940.16;5076684;28;20020;-78
2024/03/28 09:00:19;;;;;;;2.45;1.05;;;7.10;99.90;;;-144.05;61.18;56965.66;5079741;28;20401;-78
2024/03/28 09:02:46;;;;;;;1.23;0.88;;;;;;;-144.05;62.03;56974.16;5081704;28;20030;-78
2024/03/28 09:05:15;;;;;;;1.85;1.02;;;7.50;99.90;;;-144.05;64.71;56946.53;5080198;28;20060;-78
2024/03/28 09:07:42;;;;;;;2.75;1.30;;;;;;;-144.05;65.45;57008.13;5061241;28;20494;-80
2024/03/28 09:10:09;;;;;;;2.28;0.90;;;8.70;99.90;;;-144.05;67.03;56957.16;5061680;28;20090;-79
2024/03/28 09:12:37;;;;;;;4.45;1.30;;;7.50;99.90;;;-144.05;68.91;56963.53;5081018;28;20024;-79
2024/03/28 09:15:08;;;;;;;4.75;1.38;;;7.80;99.90;;;-144.05;70.69;56976.28;5086286;28;20020;-78
2024/03/28 09:17:35;;;;;;;4.00;1.33;;;7.10;99.90;;;-144.05;71.32;56976.28;5063162;28;20025;-79
2024/03/28 09:20:05;;;;;;;4.40;1.38;;;7.60;99.90;;;-144.05;74.24;56989.00;5073339;28;20478;-78
2024/03/28 09:22:33;;;;;;;2.33;1.10;;;7.00;99.90;;;-144.05;75.01;56959.28;5081201;28;20123;-79
2024/03/28 09:25:01;;;;;;;2.33;1.55;;;7.10;99.90;;;-144.05;74.95;56948.66;5069434;28;20106;-80
2024/03/28 09:27:27;;;;;;;3.47;1.10;;;;;;;-144.05;77.19;56972.03;5088867;28;20025;-78
2024/03/28 09:29:55;;;;;;;1.15;1.05;;;7.20;99.90;;;-144.05;76.56;56986.91;5085145;28;20405;-80
2024/03/28 09:32:22;;;;;;;2.47;1.55;;;7.90;99.90;;;-144.05;78.83;56950.78;5082949;28;20031;-81
2024/03/28 09:34:51;;;;;;;2.47;1.35;;;8.10;99.90;;;-144.05;79.13;56974.16;5064614;28;20042;-80
2024/03/28 09:37:18;;;;;;;1.67;1.20;;;7.10;99.90;;;-144.05;80.59;56991.13;5085141;28;20043;-79
2024/03/28 09:39:51;;;;;;;1.70;1.13;;;7.00;99.90;;;-144.05;80.91;56938.03;5064430;28;20028;-80
2024/03/28 09:42:22;;;;;;;2.25;1.33;;;7.10;99.90;;;-144.05;79.53;56938.03;5063251;28;20036;-79
2024/03/28 09:44:49;;;;;;;1.65;0.93;;;7.00;99.90;;;-144.05;80.66;56984.78;5080713;28;20084;-79
2024/03/28 09:47:21;;;;;;;2.35;0.90;;;7.30;99.90;;;-144.05;80.72;56982.66;5060874;28;20029;-79
2024/03/28 09:49:49;;;;;;;3.35;1.42;;;8.00;99.90;;;-144.05;81.52;56991.13;5078706;28;20489;-79
2024/03/28 09:52:17;;;;;;;1.70;0.95;;;;;;;-144.05;80.09;56969.91;5078895;28;20043;-79
2024/03/28 09:54:46;;;;;;;1.58;1.13;;;6.80;99.90;;;-144.05;79.19;56942.28;5080268;28;20050;-79
2024/03/28 09:57:12;;;;;;;1.45;1.27;;;;;;;-144.05;79.78;56967.78;5071480;28;20039;-80
2024/03/28 09:59:39;;;;;;;2.28;1.20;;;7.40;99.90;;;-144.05;79.69;56972.03;5059254;28;20031;-80
2024/03/28 10:03:01;;;;;;;2.50;1.10;;;7.80;99.90;;;-144.05;81.71;56963.53;5060686;28;20024;-80
2024/03/28 10:05:27;;;;;;;2.03;1.10;;;;;;;-144.05;82.04;56946.53;5034146;28;20070;-80
2024/03/28 10:07:53;;;;;;;2.65;1.33;;;7.10;99.90;;;-144.05;81.63;56963.53;5069253;28;20020;-81
2024/03/28 10:10:22;;;;;;;1.58;1.30;;;7.00;99.90;;;-144.05;80.59;56948.66;5077642;28;20501;-78
2024/03/28 10:12:56;;;;;;;1.83;1.00;;;8.70;99.90;;;-144.05;81.13;56946.53;5061206;28;20023;-79
2024/03/28 10:15:22;;;;;;;2.22;1.38;;;7.80;99.90;;;-144.05;82.31;56959.28;5058398;28;20108;-81
2024/03/28 10:18:00;;;;;;;5.53;1.88;;;7.40;99.90;;;-144.05;81.21;56963.53;5079191;28;20047;-80
2024/03/28 10:20:27;;;;;;;0.90;0.90;;;7.20;99.90;;;-144.05;83.10;56959.28;5057974;28;20032;-80
2024/03/28 10:22:53;;;;;;;1.25;1.10;;;8.30;99.90;;;-144.05;85.19;56955.03;5077282;28;20036;-80
2024/03/28 10:25:21;;;;;;;1.25;1.10;;;8.70;99.90;;;-144.05;84.61;56969.91;5058480;28;20441;-81
2024/03/28 10:27:47;;;;;;;1.42;1.20;;;8.10;99.90;;;-144.05;84.78;56976.28;5076711;28;20482;-80
2024/03/28 10:30:25;;;;;;;0.95;0.90;;;6.90;99.90;;;-144.05;84.32;56961.41;5077299;28;20029;-80
2024/03/28 10:33:04;;;;;;;1.60;1.10;;;7.20;99.90;;;-144.05;85.70;56952.91;5052873;28;20020;-78